createdAt,value
2023-04-08T00:02:14.287Z,102268.06
2023-04-08T00:04:41.442Z,102286.34
2023-04-08T00:07:08.153Z,102252.28
2023-04-08T00:09:34.802Z,102242.47
2023-04-08T00:12:02.078Z,102297.47
2023-04-08T00:14:28.673Z,102252.00
2023-04-08T00:16:55.914Z,102273.84
2023-04-08T00:19:22.731Z,102252.72
2023-04-08T00:21:49.504Z,102298.94
2023-04-08T00:24:16.738Z,102283.94
2023-04-08T00:26:43.275Z,102290.06
2023-04-08T00:29:10.076Z,102308.31
2023-04-08T00:31:37.287Z,102255.03
2023-04-08T00:34:04.925Z,102276.66
2023-04-08T00:36:31.563Z,102267.06
2023-04-08T00:38:58.227Z,102281.09
2023-04-08T00:41:24.845Z,102307.16
2023-04-08T00:43:52.577Z,102253.84
2023-04-08T00:46:19.460Z,102273.91
2023-04-08T00:48:46.315Z,102274.78
2023-04-08T00:51:13.239Z,102238.91
2023-04-08T00:53:40.082Z,102276.31
2023-04-08T00:56:06.608Z,102285.91
2023-04-08T00:58:33.360Z,102274.34
2023-04-08T01:01:06.312Z,102309.28
2023-04-08T01:03:54.716Z,102318.81
2023-04-08T01:06:42.458Z,102322.19
2023-04-08T01:09:11.675Z,102300.16
2023-04-08T01:11:43.854Z,102313.09
2023-04-08T01:14:16.460Z,102292.06
2023-04-08T01:16:45.325Z,102299.84
2023-04-08T01:19:37.888Z,102274.41
2023-04-08T01:22:37.372Z,102301.53
2023-04-08T01:25:14.978Z,102291.81
2023-04-08T01:27:43.354Z,102304.19
2023-04-08T01:30:11.003Z,102296.06
2023-04-08T01:32:39.866Z,102277.78
2023-04-08T01:35:08.068Z,102272.34
2023-04-08T01:37:35.937Z,102288.00
2023-04-08T01:40:03.364Z,102305.41
2023-04-08T01:42:31.636Z,102294.91
2023-04-08T01:44:59.549Z,102286.28
2023-04-08T01:47:26.856Z,102320.22
2023-04-08T01:49:54.034Z,102279.03
2023-04-08T01:52:22.593Z,102279.88
2023-04-08T01:54:49.675Z,102283.28
2023-04-08T01:57:23.335Z,102275.47
2023-04-08T01:59:53.165Z,102331.22
2023-04-08T02:02:22.837Z,102341.66
2023-04-08T02:04:50.043Z,102303.28
2023-04-08T02:07:18.015Z,102332.06
2023-04-08T02:09:44.684Z,102312.72
2023-04-08T02:12:11.916Z,102282.94
2023-04-08T02:14:38.939Z,102336.25
2023-04-08T02:17:24.320Z,102327.53
2023-04-08T02:20:03.811Z,102295.06
2023-04-08T02:22:48.186Z,102325.63
2023-04-08T02:25:16.958Z,102313.22
2023-04-08T02:27:46.337Z,102316.59
2023-04-08T02:30:13.995Z,102279.84
2023-04-08T02:32:42.676Z,102323.38
2023-04-08T02:35:12.165Z,102300.66
2023-04-08T02:37:39.270Z,102340.78
2023-04-08T02:40:26.455Z,102320.59
2023-04-08T02:42:54.134Z,102311.81
2023-04-08T02:45:21.589Z,102331.78
2023-04-08T02:47:48.753Z,102323.91
2023-04-08T02:50:15.690Z,102294.13
2023-04-08T02:52:43.954Z,102328.03
2023-04-08T02:55:10.795Z,102307.84
2023-04-08T02:57:39.503Z,102324.25
2023-04-08T03:00:07.427Z,102320.69
2023-04-08T03:02:34.109Z,102345.06
2023-04-08T03:05:01.300Z,102350.16
2023-04-08T03:07:28.044Z,102331.72
2023-04-08T03:09:55.676Z,102329.88
2023-04-08T03:12:22.792Z,102331.41
2023-04-08T03:14:50.739Z,102347.81
2023-04-08T03:17:17.549Z,102341.53
2023-04-08T03:19:44.151Z,102338.69
2023-04-08T03:22:10.768Z,102339.56
2023-04-08T03:24:37.843Z,102380.50
2023-04-08T03:27:04.489Z,102353.34
2023-04-08T03:29:31.210Z,102374.19
2023-04-08T03:31:58.079Z,102372.41
2023-04-08T03:34:24.863Z,102360.88
2023-04-08T03:36:51.452Z,102356.31
2023-04-08T03:39:18.039Z,102365.84
2023-04-08T03:41:44.652Z,102391.94
2023-04-08T03:44:11.265Z,102345.44
2023-04-08T03:46:38.410Z,102350.47
2023-04-08T03:49:05.071Z,102369.50
2023-04-08T03:51:32.132Z,102339.84
2023-04-08T03:53:59.748Z,102361.41
2023-04-08T03:56:26.550Z,102401.56
2023-04-08T03:58:53.281Z,102378.69
2023-04-08T04:01:19.925Z,102355.00
2023-04-08T04:03:46.662Z,102341.66
2023-04-08T04:06:13.339Z,102405.34
2023-04-08T04:08:40.027Z,102399.09
2023-04-08T04:11:06.741Z,102393.75
2023-04-08T04:13:33.326Z,102400.69
2023-04-08T04:15:59.948Z,102378.53
2023-04-08T04:18:26.652Z,102402.00
2023-04-08T04:20:53.331Z,102392.25
2023-04-08T04:23:19.988Z,102406.75
2023-04-08T04:25:46.802Z,102362.91
2023-04-08T04:28:13.839Z,102390.88
2023-04-08T04:30:40.649Z,102380.25
2023-04-08T04:33:07.953Z,102382.88
2023-04-08T04:35:34.836Z,102364.38
2023-04-08T04:38:01.783Z,102375.56
2023-04-08T04:40:28.524Z,102400.88
2023-04-08T04:42:55.885Z,102401.66
2023-04-08T04:45:22.802Z,102385.06
2023-04-08T04:47:49.551Z,102412.16
2023-04-08T04:50:16.190Z,102396.31
2023-04-08T04:52:42.839Z,102370.72
2023-04-08T04:55:09.932Z,102417.91
2023-04-08T04:57:36.568Z,102356.53
2023-04-08T05:00:05.341Z,102391.56
2023-04-08T05:02:32.558Z,102415.78
2023-04-08T05:04:59.581Z,102443.72
2023-04-08T05:07:26.317Z,102443.72
2023-04-08T05:09:54.614Z,102404.16
2023-04-08T05:12:21.336Z,102442.72
2023-04-08T05:14:47.954Z,102397.94
2023-04-08T05:17:14.563Z,102426.06
2023-04-08T05:19:41.068Z,102404.94
2023-04-08T05:22:07.770Z,102435.50
2023-04-08T05:24:34.254Z,102409.97
2023-04-08T05:27:01.480Z,102438.94
2023-04-08T05:29:28.337Z,102423.06
2023-04-08T05:31:56.717Z,102452.78
2023-04-08T05:34:23.473Z,102409.88
2023-04-08T05:36:52.977Z,102422.13
2023-04-08T05:39:20.536Z,102424.44
2023-04-08T05:41:49.918Z,102413.88
2023-04-08T05:44:16.627Z,102426.91
2023-04-08T05:46:43.397Z,102417.34
2023-04-08T05:49:10.117Z,102381.38
2023-04-08T05:51:36.692Z,102395.53
2023-04-08T05:54:03.460Z,102438.50
2023-04-08T05:56:32.888Z,102470.88
2023-04-08T05:58:59.893Z,102463.75
2023-04-08T06:01:26.977Z,102464.75
2023-04-08T06:03:57.063Z,102493.47
2023-04-08T06:06:26.306Z,102448.00
2023-04-08T06:08:53.122Z,102494.56
2023-04-08T06:11:22.803Z,102448.41
2023-04-08T06:13:49.465Z,102403.03
2023-04-08T06:16:20.324Z,102452.03
2023-04-08T06:18:50.474Z,102469.91
2023-04-08T06:21:17.431Z,102489.38
2023-04-08T06:23:44.210Z,102442.19
2023-04-08T06:26:13.639Z,102466.81
2023-04-08T06:28:42.483Z,102442.50
2023-04-08T06:31:10.599Z,102467.25
2023-04-08T06:33:40.429Z,102438.66
2023-04-08T06:36:08.596Z,102505.59
2023-04-08T06:38:35.380Z,102471.66
2023-04-08T06:41:03.677Z,102487.75
2023-04-08T06:43:31.036Z,102464.31
2023-04-08T06:45:58.128Z,102488.22
2023-04-08T06:48:33.171Z,102516.38
2023-04-08T06:51:01.504Z,102520.19
2023-04-08T06:53:32.924Z,102516.97
2023-04-08T06:56:03.040Z,102528.53
2023-04-08T06:58:30.107Z,102505.94
2023-04-08T07:00:57.373Z,102499.03
2023-04-08T07:03:26.393Z,102538.78
2023-04-08T07:06:06.690Z,102528.59
2023-04-08T07:08:33.279Z,102510.28
2023-04-08T07:11:00.012Z,102530.00
2023-04-08T07:13:26.841Z,102520.69
2023-04-08T07:15:53.529Z,102488.13
2023-04-08T07:18:21.437Z,102476.41
2023-04-08T07:20:53.987Z,102486.44
2023-04-08T07:23:21.405Z,102507.81
2023-04-08T07:25:50.714Z,102481.16
2023-04-08T07:28:17.606Z,102523.50
2023-04-08T07:30:44.189Z,102511.69
2023-04-08T07:33:10.887Z,102529.59
2023-04-08T07:35:38.064Z,102504.53
2023-04-08T07:38:16.923Z,102550.47
2023-04-08T07:40:46.067Z,102514.94
2023-04-08T07:43:12.991Z,102518.66
2023-04-08T07:45:42.564Z,102495.56
2023-04-08T07:48:10.979Z,102467.09
2023-04-08T07:51:09.455Z,102479.84
2023-04-08T07:53:37.467Z,102523.13
2023-04-08T07:56:12.118Z,102505.09
2023-04-08T07:58:50.082Z,102499.34
2023-04-08T08:01:22.046Z,102542.44
2023-04-08T08:03:52.807Z,102545.22
2023-04-08T08:06:27.236Z,102500.03
2023-04-08T08:08:54.636Z,102565.69
2023-04-08T08:11:46.386Z,102583.34
2023-04-08T08:16:04.626Z,102541.63
2023-04-08T08:17:31.835Z,102573.25
2023-04-08T08:20:12.758Z,102498.44
2023-04-08T08:22:47.187Z,102564.91
2023-04-08T08:25:45.364Z,102496.13
2023-04-08T08:29:36.671Z,102519.00
2023-04-08T08:32:18.055Z,102516.53
2023-04-08T08:38:51.375Z,102536.78
2023-04-08T08:41:56.990Z,102532.44
2023-04-08T09:02:32.638Z,102488.94
2023-04-08T09:05:24.724Z,102521.13
2023-04-08T09:08:06.507Z,102502.84
2023-04-08T09:11:12.603Z,102481.94
2023-04-08T09:14:10.349Z,102482.78
2023-04-08T09:16:43.080Z,102478.38
2023-04-08T09:19:36.486Z,102527.94
2023-04-08T09:22:27.602Z,102479.13
2023-04-08T09:25:25.012Z,102499.06
2023-04-08T09:28:31.051Z,102482.19
2023-04-08T09:32:06.661Z,102580.16
2023-04-08T10:10:15.995Z,102604.97
2023-04-08T10:20:39.913Z,102597.69
2023-04-08T11:13:27.451Z,102486.75
2023-04-08T11:17:24.912Z,102532.19
2023-04-08T11:32:21.449Z,102519.22
2023-04-08T11:35:10.203Z,102472.81
2023-04-08T11:38:41.060Z,102537.34
2023-04-08T11:46:01.458Z,102503.41
2023-04-08T12:25:03.363Z,102508.97
2023-04-08T12:27:40.638Z,102456.84
2023-04-08T12:58:49.234Z,102425.63
2023-04-08T13:01:16.583Z,102402.28
2023-04-08T14:26:02.775Z,102393.66
2023-04-08T14:33:33.760Z,102434.59
2023-04-08T14:37:31.598Z,102395.69
2023-04-08T14:40:15.027Z,102334.56
2023-04-08T18:02:15.383Z,102288.28
2023-04-08T19:30:25.021Z,102361.94
2023-04-08T20:42:47.473Z,102394.59
2023-04-08T21:22:35.192Z,102439.28
2023-04-08T21:25:11.844Z,102411.34
2023-04-08T21:27:48.513Z,102391.28
2023-04-08T21:30:25.965Z,102401.69
2023-04-08T21:32:55.926Z,102405.97
2023-04-08T21:35:27.525Z,102364.09
2023-04-08T21:42:20.094Z,102381.34
2023-04-08T21:45:03.014Z,102397.88
2023-04-08T21:47:44.009Z,102390.00
2023-04-08T21:50:49.234Z,102471.91
2023-04-08T21:53:20.416Z,102371.59
2023-04-08T21:56:53.829Z,102372.38
2023-04-08T21:59:45.484Z,102412.44
2023-04-08T22:02:40.406Z,102368.81
2023-04-08T22:06:31.123Z,102426.28
2023-04-08T22:09:41.693Z,102395.66
2023-04-08T22:12:57.124Z,102406.94
2023-04-08T22:27:24.169Z,102381.31
2023-04-08T22:29:56.356Z,102416.22
2023-04-08T22:32:26.443Z,102391.72
2023-04-08T22:34:56.773Z,102383.81
2023-04-08T22:37:31.311Z,102442.25
2023-04-08T22:40:23.505Z,102432.59
2023-04-08T22:42:50.481Z,102395.94
2023-04-08T22:45:17.259Z,102447.41
2023-04-08T22:47:56.811Z,102389.00
2023-04-08T22:50:24.101Z,102411.53
2023-04-08T22:52:51.886Z,102345.25
2023-04-08T22:55:26.912Z,102385.38
2023-04-08T22:57:57.995Z,102425.53
2023-04-08T23:00:25.280Z,102401.91
2023-04-08T23:02:53.641Z,102351.34
2023-04-08T23:05:26.759Z,102459.56
2023-04-08T23:07:58.927Z,102406.22
2023-04-08T23:10:25.912Z,102367.00
2023-04-08T23:12:52.805Z,102390.53
2023-04-08T23:15:19.892Z,102430.66
2023-04-08T23:17:46.715Z,102345.16
2023-04-08T23:20:13.550Z,102394.00
2023-04-08T23:22:42.482Z,102387.00
2023-04-08T23:25:09.907Z,102425.34
2023-04-08T23:27:37.053Z,102390.47
2023-04-08T23:30:19.239Z,102391.50
2023-04-08T23:35:41.961Z,102390.78
2023-04-08T23:38:10.734Z,102388.91
2023-04-08T23:40:37.340Z,102406.41
2023-04-08T23:43:04.135Z,102413.31
2023-04-08T23:45:36.470Z,102334.81
2023-04-08T23:48:08.858Z,102397.66
2023-04-08T23:50:41.133Z,102357.41
2023-04-08T23:53:09.985Z,102348.72
2023-04-08T23:55:39.452Z,102363.63
2023-04-08T23:58:06.120Z,102374.09
